TJBQ/BQN METAR and TAF weather

Enter ICAO airport designator
Station Type Date Time Source
TJBQ METAR 2021/04/17 00:50 UTC NOAA

TJBQ 170050Z 10009KT 10SM BKN016 BKN020 25/23 A2999


Station Type Date Time Source
TJBQ Decoded METAR 2021/04/17 00:50 UTC NOAA

Aquadilla, Rafael Hernandez Airport, PR, United States (TJBQ) 18-30N 067-08W 69M
Apr 16, 2021 - 08:50 PM EDT / 2021.04.17 0050 UTC
Wind: from the E (100 degrees) at 10 MPH (9 KT):0
Visibility: 10 mile(s):0
Sky conditions: mostly cloudy
Temperature: 77 F (25 C)
Dew Point: 73 F (23 C)
Relative Humidity: 88%
Pressure (altimeter): 29.99 in. Hg (1015 hPa)
ob: TJBQ 170050Z 10009KT 10SM BKN016 BKN020 25/23 A2999
cycle: 1

Station Type Date Time Source
TJBQ TAF 2021/04/17 00:06 UTC NOAA

TAF TJBQ 170001Z 1700/1724 09011KT P6SM -RA SCT025 BKN050
FM170200 12004KT P6SM FEW035 FEW060
FM171400 06011KT P6SM FEW025
FM171730 07014KT P6SM VCSH SCT025 BKN050
FM172200 VRB06KT P6SM FEW030 SCT060
AMD NOT SKED TIL 171100

Example: see airport list